createdAt,value
2018-04-09T00:00:58.342Z,0
2018-04-09T00:02:08.320Z,0
2018-04-09T00:03:17.770Z,0
2018-04-09T00:04:26.961Z,0
2018-04-09T00:05:36.941Z,0
2018-04-09T00:06:46.656Z,0
2018-04-09T00:07:56.367Z,0
2018-04-09T00:09:06.083Z,0
2018-04-09T00:10:16.041Z,0
2018-04-09T00:11:26.010Z,0
2018-04-09T00:12:35.450Z,0
2018-04-09T00:13:45.423Z,0
2018-04-09T00:14:55.393Z,0
2018-04-09T00:16:05.096Z,0
2018-04-09T00:17:15.062Z,0
2018-04-09T00:18:25.034Z,0
2018-04-09T00:19:34.218Z,0
2018-04-09T00:20:44.196Z,0
2018-04-09T00:21:53.907Z,0
2018-04-09T00:23:03.876Z,0
2018-04-09T00:24:13.841Z,0
2018-04-09T00:25:23.817Z,0
2018-04-09T00:26:33.773Z,0
2018-04-09T00:27:43.488Z,0
2018-04-09T00:28:52.931Z,0
2018-04-09T00:30:02.906Z,0
2018-04-09T00:31:12.882Z,0
2018-04-09T00:32:22.611Z,0
2018-04-09T00:33:32.317Z,0
2018-04-09T00:34:42.023Z,0
2018-04-09T00:35:51.995Z,0
2018-04-09T00:37:01.961Z,0
2018-04-09T00:38:11.926Z,0
2018-04-09T00:39:21.628Z,0
2018-04-09T00:40:31.342Z,0
2018-04-09T00:41:41.302Z,0
2018-04-09T00:42:51.012Z,0
2018-04-09T00:44:00.710Z,0
2018-04-09T00:45:10.431Z,0
2018-04-09T00:46:20.130Z,0
2018-04-09T00:47:29.846Z,0
2018-04-09T00:48:39.801Z,0
2018-04-09T00:49:49.769Z,0
2018-04-09T00:50:59.467Z,0
2018-04-09T00:52:09.169Z,0
2018-04-09T00:53:19.129Z,0
2018-04-09T00:54:28.848Z,0
2018-04-09T00:55:38.832Z,0
2018-04-09T00:56:48.791Z,0
2018-04-09T00:57:58.501Z,0
2018-04-09T00:59:08.461Z,0
2018-04-09T01:00:18.448Z,0
2018-04-09T01:01:28.151Z,0
2018-04-09T01:02:38.117Z,0
2018-04-09T01:03:47.564Z,0
2018-04-09T01:04:57.525Z,0
2018-04-09T01:06:07.488Z,0
2018-04-09T01:07:17.447Z,0
2018-04-09T01:08:27.412Z,0
2018-04-09T01:09:37.128Z,0
2018-04-09T01:10:47.089Z,0
2018-04-09T01:11:57.058Z,0
2018-04-09T01:13:07.041Z,0
2018-04-09T01:14:17.002Z,0
2018-04-09T01:15:26.715Z,0
2018-04-09T01:16:36.674Z,0
2018-04-09T01:17:46.644Z,0
2018-04-09T01:18:56.358Z,0
2018-04-09T01:20:06.340Z,0
2018-04-09T01:21:16.036Z,0
2018-04-09T01:22:25.479Z,0
2018-04-09T01:23:35.447Z,0
2018-04-09T01:24:45.145Z,0
2018-04-09T01:25:54.594Z,0
2018-04-09T01:27:04.554Z,0
2018-04-09T01:28:14.252Z,0
2018-04-09T01:29:24.219Z,0
2018-04-09T01:30:34.180Z,0
2018-04-09T01:31:43.637Z,0
2018-04-09T01:32:53.595Z,0
2018-04-09T01:34:03.301Z,0
2018-04-09T01:35:12.999Z,0
2018-04-09T01:36:22.961Z,0
2018-04-09T01:37:32.918Z,0
2018-04-09T01:38:42.871Z,0
2018-04-09T01:39:52.831Z,0
2018-04-09T01:41:02.527Z,0
2018-04-09T01:42:12.482Z,0
2018-04-09T01:43:22.191Z,0
2018-04-09T01:44:31.898Z,0
2018-04-09T01:45:41.864Z,0
2018-04-09T01:46:51.565Z,0
2018-04-09T01:48:01.269Z,0
2018-04-09T01:49:11.235Z,0
2018-04-09T01:50:20.940Z,0
2018-04-09T01:51:30.753Z,0
2018-04-09T01:52:40.472Z,0
2018-04-09T01:53:50.448Z,0
2018-04-09T01:55:00.403Z,0
2018-04-09T01:56:10.363Z,0
2018-04-09T01:57:20.331Z,0
2018-04-09T01:58:29.782Z,0
2018-04-09T01:59:39.744Z,0
2018-04-09T02:00:49.709Z,0
2018-04-09T02:01:58.889Z,0
2018-04-09T02:03:08.853Z,0
2018-04-09T02:04:18.825Z,0
2018-04-09T02:05:28.546Z,0
2018-04-09T02:06:38.255Z,0
2018-04-09T02:07:48.210Z,0
2018-04-09T02:08:58.163Z,0
2018-04-09T02:10:07.696Z,0
2018-04-09T02:11:17.412Z,0
2018-04-09T02:12:27.118Z,0
2018-04-09T02:13:36.323Z,0
2018-04-09T02:14:46.028Z,0
2018-04-09T02:15:55.468Z,0
2018-04-09T02:17:05.444Z,0
2018-04-09T02:18:15.406Z,0
2018-04-09T02:19:25.372Z,0
2018-04-09T02:20:35.068Z,0
2018-04-09T02:21:44.759Z,0
2018-04-09T02:22:54.203Z,0
2018-04-09T02:24:03.923Z,0
2018-04-09T02:25:13.894Z,0
2018-04-09T02:26:23.589Z,0
2018-04-09T02:27:33.580Z,0
2018-04-09T02:28:43.287Z,0
2018-04-09T02:29:53.242Z,0
2018-04-09T02:31:02.438Z,0
2018-04-09T02:32:12.404Z,0
2018-04-09T02:33:22.105Z,0
2018-04-09T02:34:31.828Z,0
2018-04-09T02:35:41.556Z,0
2018-04-09T02:36:51.288Z,0
2018-04-09T02:38:01.000Z,0
2018-04-09T02:39:10.713Z,0
2018-04-09T02:40:20.444Z,0
2018-04-09T02:41:30.156Z,0
2018-04-09T02:42:40.122Z,0
2018-04-09T02:43:50.086Z,0
2018-04-09T02:45:00.072Z,0
2018-04-09T02:46:09.804Z,0
2018-04-09T02:47:19.769Z,0
2018-04-09T02:48:29.737Z,0
2018-04-09T02:49:39.706Z,0
2018-04-09T02:50:49.674Z,0
2018-04-09T02:51:59.375Z,0
2018-04-09T02:53:08.815Z,0
2018-04-09T02:54:18.781Z,0
2018-04-09T02:55:28.489Z,0
2018-04-09T02:56:38.462Z,0
2018-04-09T02:57:48.275Z,0
2018-04-09T02:58:57.975Z,0
2018-04-09T03:00:07.166Z,0
2018-04-09T03:01:16.887Z,0
2018-04-09T03:02:26.612Z,0
2018-04-09T03:03:36.331Z,0
2018-04-09T03:04:46.296Z,0
2018-04-09T03:05:56.010Z,0
2018-04-09T03:07:05.740Z,0
2018-04-09T03:08:15.466Z,0
2018-04-09T03:09:25.017Z,0
2018-04-09T03:10:34.768Z,0
2018-04-09T03:11:44.519Z,0
2018-04-09T03:12:54.222Z,0
2018-04-09T03:14:04.182Z,0
2018-04-09T03:15:14.172Z,0
2018-04-09T03:16:24.138Z,0
2018-04-09T03:17:33.583Z,0
2018-04-09T03:18:43.296Z,0
2018-04-09T03:19:52.741Z,0
2018-04-09T03:21:02.709Z,0
2018-04-09T03:22:12.666Z,0
2018-04-09T03:23:22.422Z,0
2018-04-09T03:24:32.383Z,0
2018-04-09T03:25:41.571Z,0
2018-04-09T03:26:51.547Z,0
2018-04-09T03:28:01.260Z,0
2018-04-09T03:29:10.969Z,0
2018-04-09T03:30:20.950Z,0
2018-04-09T03:31:30.953Z,0
2018-04-09T03:32:40.922Z,0
2018-04-09T03:33:50.931Z,0
2018-04-09T03:35:00.362Z,0
2018-04-09T03:36:09.813Z,0
2018-04-09T03:37:19.513Z,0
2018-04-09T03:38:29.467Z,0
2018-04-09T03:39:38.919Z,0
2018-04-09T03:40:48.884Z,0
2018-04-09T03:41:58.585Z,0
2018-04-09T03:43:08.300Z,0
2018-04-09T03:44:18.254Z,0
2018-04-09T03:45:27.696Z,0
2018-04-09T03:46:37.145Z,0
2018-04-09T03:47:46.886Z,0
2018-04-09T03:48:56.341Z,4
2018-04-09T03:50:05.530Z,4
2018-04-09T03:51:15.249Z,4
2018-04-09T03:52:24.434Z,4
2018-04-09T03:53:34.147Z,4
2018-04-09T03:54:43.846Z,4
2018-04-09T03:55:53.292Z,8
2018-04-09T03:57:02.990Z,8
2018-04-09T03:58:12.730Z,12
2018-04-09T03:59:22.835Z,16
2018-04-09T04:00:32.833Z,16
2018-04-09T04:01:42.270Z,20
2018-04-09T04:02:51.977Z,24
2018-04-09T04:04:01.680Z,28
2018-04-09T04:05:11.377Z,36
2018-04-09T04:06:21.350Z,44
2018-04-09T04:07:31.060Z,56
2018-04-09T04:08:40.761Z,68
2018-04-09T04:09:50.195Z,76
2018-04-09T04:11:00.520Z,92
2018-04-09T04:12:10.481Z,108
2018-04-09T04:13:19.935Z,128
2018-04-09T04:14:29.900Z,152
2018-04-09T04:15:39.600Z,176
2018-04-09T04:16:49.053Z,204
2018-04-09T04:17:58.500Z,236
2018-04-09T04:19:08.465Z,268
2018-04-09T04:20:18.431Z,304
2018-04-09T04:21:28.479Z,348
2018-04-09T04:22:37.661Z,396
2018-04-09T04:23:47.613Z,436
2018-04-09T04:24:57.066Z,488
2018-04-09T04:26:07.025Z,544
2018-04-09T04:27:16.733Z,600
2018-04-09T04:28:26.858Z,664
2018-04-09T04:29:36.592Z,728
2018-04-09T04:30:46.311Z,792
2018-04-09T04:31:56.278Z,860
2018-04-09T04:33:05.991Z,936
2018-04-09T04:34:15.952Z,1012
2018-04-09T04:35:25.914Z,1088
2018-04-09T04:36:35.361Z,1168
2018-04-09T04:37:45.061Z,1248
2018-04-09T04:38:54.754Z,1332
2018-04-09T04:40:04.717Z,1424
2018-04-09T04:41:14.160Z,1516
2018-04-09T04:42:23.859Z,1604
2018-04-09T04:43:33.558Z,1700
2018-04-09T04:44:43.520Z,1800
2018-04-09T04:45:53.502Z,1896
2018-04-09T04:47:03.465Z,1996
2018-04-09T04:48:13.204Z,2092
2018-04-09T04:49:23.210Z,2192
2018-04-09T04:50:33.179Z,2288
2018-04-09T04:51:43.143Z,2392
2018-04-09T04:52:52.860Z,2492
2018-04-09T04:54:02.825Z,2596
2018-04-09T04:55:12.794Z,2696
2018-04-09T04:56:22.237Z,2792
2018-04-09T04:57:32.205Z,2896
2018-04-09T04:58:41.915Z,2988
2018-04-09T04:59:51.867Z,3092
2018-04-09T05:01:01.310Z,3184
2018-04-09T05:02:11.005Z,3284
2018-04-09T05:03:20.466Z,3376
2018-04-09T05:04:30.495Z,3468
2018-04-09T05:05:40.454Z,3560
2018-04-09T05:06:50.153Z,3656
2018-04-09T05:07:59.860Z,3744
2018-04-09T05:09:09.823Z,3836
2018-04-09T05:10:19.528Z,3928
2018-04-09T05:11:29.228Z,4020
2018-04-09T05:12:38.683Z,4112
2018-04-09T05:13:48.392Z,4200
2018-04-09T05:14:57.838Z,4288
2018-04-09T05:16:07.802Z,4376
2018-04-09T05:17:17.252Z,4464
2018-04-09T05:18:26.742Z,4548
2018-04-09T05:19:36.189Z,4636
2018-04-09T05:20:45.703Z,4712
2018-04-09T05:21:55.145Z,4788
2018-04-09T05:23:05.112Z,4896
2018-04-09T05:24:14.555Z,4968
2018-04-09T05:25:23.757Z,5076
2018-04-09T05:26:33.765Z,5152
2018-04-09T05:27:43.465Z,5228
2018-04-09T05:28:53.440Z,5312
2018-04-09T05:30:03.170Z,5392
2018-04-09T05:31:12.642Z,5480
2018-04-09T05:32:22.359Z,5556
2018-04-09T05:33:32.072Z,5636
2018-04-09T05:34:41.787Z,5724
2018-04-09T05:35:50.972Z,5812
2018-04-09T05:37:00.940Z,5888
2018-04-09T05:38:10.130Z,5964
2018-04-09T05:39:19.839Z,6032
2018-04-09T05:40:29.556Z,6104
2018-04-09T05:41:39.323Z,6164
2018-04-09T05:42:49.294Z,6236
2018-04-09T05:43:59.267Z,6308
2018-04-09T05:45:08.707Z,6380
2018-04-09T05:46:18.695Z,6456
2018-04-09T05:47:28.662Z,6536
2018-04-09T05:48:38.652Z,6632
2018-04-09T05:49:48.355Z,6716
2018-04-09T05:50:58.332Z,6772
2018-04-09T05:52:07.786Z,6832
2018-04-09T05:53:17.508Z,6892
2018-04-09T05:54:27.214Z,6960
2018-04-09T05:55:37.258Z,7028
2018-04-09T05:56:46.964Z,7096
2018-04-09T05:57:56.433Z,7168
2018-04-09T05:59:06.139Z,7240
2018-04-09T06:00:16.115Z,7292
2018-04-09T06:01:26.096Z,7368
2018-04-09T06:02:35.805Z,7452
2018-04-09T06:03:45.260Z,7476
2018-04-09T06:04:54.980Z,7532
2018-04-09T06:06:04.432Z,7596
2018-04-09T06:07:14.394Z,7656
2018-04-09T06:08:24.109Z,7716
2018-04-09T06:09:33.823Z,7784
2018-04-09T06:10:43.351Z,7852
2018-04-09T06:11:52.831Z,7920
2018-04-09T06:13:02.824Z,7984
2018-04-09T06:14:12.537Z,8048
2018-04-09T06:15:22.260Z,8112
2018-04-09T06:16:31.990Z,8180
2018-04-09T06:17:41.443Z,8256
2018-04-09T06:18:51.171Z,8328
2018-04-09T06:20:00.895Z,8392
2018-04-09T06:21:10.369Z,8444
2018-04-09T06:22:20.154Z,8504
2018-04-09T06:23:30.201Z,8568
2018-04-09T06:24:39.666Z,8628
2018-04-09T06:25:49.624Z,8680
2018-04-09T06:26:59.082Z,8744
2018-04-09T06:28:08.286Z,8812
2018-04-09T06:29:18.255Z,8880
2018-04-09T06:30:28.006Z,8940
2018-04-09T06:31:37.761Z,9000
2018-04-09T06:32:47.463Z,9064
2018-04-09T06:33:57.191Z,9128
2018-04-09T06:35:06.645Z,9196
2018-04-09T06:36:16.443Z,9260
2018-04-09T06:37:26.535Z,9332
2018-04-09T06:38:35.755Z,9400
2018-04-09T06:39:46.106Z,9472
2018-04-09T06:40:56.081Z,9536
2018-04-09T06:42:06.111Z,9604
2018-04-09T06:43:16.088Z,9680
2018-04-09T06:44:26.117Z,9740
2018-04-09T06:45:35.856Z,9856
2018-04-09T06:46:45.626Z,9980
2018-04-09T06:47:55.108Z,10096
2018-04-09T06:49:04.873Z,10200
2018-04-09T06:50:14.597Z,10304
2018-04-09T06:51:24.621Z,10408
2018-04-09T06:52:34.625Z,10484
2018-04-09T06:53:44.082Z,10552
2018-04-09T06:54:53.588Z,10660
2018-04-09T06:56:03.577Z,10724
2018-04-09T06:57:13.298Z,10784
2018-04-09T06:58:23.014Z,10860
2018-04-09T06:59:33.057Z,10928
2018-04-09T07:00:42.508Z,10976
2018-04-09T07:01:52.480Z,11036
2018-04-09T07:03:02.227Z,11108
2018-04-09T07:04:11.940Z,11164
2018-04-09T07:05:21.648Z,11228
2018-04-09T07:06:31.353Z,11288
2018-04-09T07:07:41.337Z,11356
2018-04-09T07:08:51.043Z,11404
2018-04-09T07:10:00.757Z,11448
2018-04-09T07:11:10.991Z,11500
2018-04-09T07:12:20.716Z,11556
2018-04-09T07:13:30.732Z,11604
2018-04-09T07:14:40.461Z,11648
2018-04-09T07:15:50.343Z,11708
2018-04-09T07:17:00.423Z,11788
2018-04-09T07:18:10.214Z,11880
2018-04-09T07:19:19.967Z,11996
2018-04-09T07:20:29.477Z,12120
2018-04-09T07:21:39.455Z,12228
2018-04-09T07:22:49.436Z,12320
2018-04-09T07:23:59.410Z,12404
2018-04-09T07:25:08.965Z,12492
2018-04-09T07:26:18.938Z,12592
2018-04-09T07:27:28.660Z,12704
2018-04-09T07:28:38.112Z,12804
2018-04-09T07:29:47.574Z,12900
2018-04-09T07:30:57.035Z,13012
2018-04-09T07:32:07.008Z,13112
2018-04-09T07:33:16.982Z,13216
2018-04-09T07:34:26.975Z,13316
2018-04-09T07:35:36.950Z,13416
2018-04-09T07:36:46.728Z,13492
2018-04-09T07:37:56.721Z,13572
2018-04-09T07:39:06.709Z,13660
2018-04-09T07:40:16.992Z,13784
2018-04-09T07:41:27.034Z,13920
2018-04-09T07:42:36.781Z,14024
2018-04-09T07:43:46.806Z,14148
2018-04-09T07:44:56.254Z,14264
2018-04-09T07:46:06.454Z,14388
2018-04-09T07:47:16.423Z,14500
2018-04-09T07:48:25.863Z,14612
2018-04-09T07:49:35.887Z,14728
2018-04-09T07:50:45.917Z,14824
2018-04-09T07:51:56.051Z,14916
2018-04-09T07:53:06.022Z,15000
2018-04-09T07:54:16.008Z,15096
2018-04-09T07:55:25.731Z,15216
2018-04-09T07:56:35.717Z,15332
2018-04-09T07:57:45.706Z,15460
2018-04-09T07:58:55.689Z,15580
2018-04-09T08:00:05.676Z,15700
2018-04-09T08:01:15.660Z,15824
2018-04-09T08:02:25.134Z,15956
2018-04-09T08:03:35.128Z,16096
2018-04-09T08:04:44.864Z,16232
2018-04-09T08:05:54.930Z,16344
2018-04-09T08:07:04.913Z,16456
2018-04-09T08:08:14.886Z,16584
2018-04-09T08:09:24.873Z,16704
2018-04-09T08:10:34.590Z,16840
2018-04-09T08:11:44.364Z,16956
2018-04-09T08:12:54.386Z,17068
2018-04-09T08:14:04.392Z,17200
2018-04-09T08:15:14.380Z,17308
2018-04-09T08:16:24.365Z,17484
2018-04-09T08:17:34.348Z,17556
2018-04-09T08:18:44.322Z,20000
2018-04-09T08:19:54.308Z,32384
2018-04-09T08:21:04.288Z,36448
2018-04-09T08:22:14.019Z,36448
2018-04-09T08:23:23.743Z,37280
2018-04-09T08:24:33.473Z,37408
2018-04-09T08:25:43.446Z,38592
2018-04-09T08:26:53.461Z,39392
2018-04-09T08:28:03.221Z,39040
2018-04-09T08:29:13.206Z,38336
2018-04-09T08:30:23.237Z,39552
2018-04-09T08:31:33.233Z,39488
2018-04-09T08:32:43.218Z,40960
2018-04-09T08:33:52.957Z,43392
2018-04-09T08:35:02.965Z,42560
2018-04-09T08:36:12.944Z,42048
2018-04-09T08:37:22.930Z,43776
2018-04-09T08:38:32.668Z,44000
2018-04-09T08:39:42.396Z,45472
2018-04-09T08:40:52.549Z,45760
2018-04-09T08:42:02.575Z,45472
2018-04-09T08:43:12.565Z,46944
2018-04-09T08:44:22.586Z,47424
2018-04-09T08:45:32.575Z,48096
2018-04-09T08:46:42.565Z,47424
2018-04-09T08:47:52.541Z,47936
2018-04-09T08:49:02.527Z,48736
2018-04-09T08:50:12.263Z,49824
2018-04-09T08:51:22.291Z,50912
2018-04-09T08:52:32.038Z,51776
2018-04-09T08:53:42.016Z,51488
2018-04-09T08:54:52.348Z,53152
2018-04-09T08:56:02.325Z,52992
2018-04-09T08:57:12.330Z,53472
2018-04-09T08:58:22.056Z,54240
2018-04-09T08:59:32.057Z,54240
2018-04-09T09:00:42.068Z,54720
2018-04-09T09:01:51.787Z,54176
2018-04-09T09:03:01.508Z,54880
2018-04-09T09:04:11.481Z,54688
2018-04-09T09:05:21.236Z,57376
2018-04-09T09:06:31.205Z,59424
2018-04-09T09:07:40.949Z,60000
2018-04-09T09:08:51.158Z,60128
2018-04-09T09:10:01.156Z,60384
2018-04-09T09:11:10.910Z,62112
2018-04-09T09:12:20.892Z,61472
2018-04-09T09:13:30.877Z,61792
2018-04-09T09:14:40.873Z,62432
2018-04-09T09:15:50.854Z,62784
2018-04-09T09:17:00.320Z,63552
2018-04-09T09:18:10.306Z,65632
2018-04-09T09:19:20.040Z,65504
2018-04-09T09:20:29.501Z,67392
2018-04-09T09:21:39.494Z,65664
2018-04-09T09:22:49.213Z,67872
2018-04-09T09:23:58.986Z,68864
2018-04-09T09:25:08.691Z,70080
2018-04-09T09:26:17.907Z,69952
2018-04-09T09:27:27.639Z,69856
2018-04-09T09:28:37.360Z,71168
2018-04-09T09:29:47.359Z,73664
2018-04-09T09:30:57.072Z,73888
2018-04-09T09:32:06.550Z,73056
2018-04-09T09:33:16.278Z,73728
2018-04-09T09:34:26.003Z,75520
2018-04-09T09:35:35.993Z,75744
2018-04-09T09:36:45.976Z,74976
2018-04-09T09:37:55.699Z,76192
2018-04-09T09:39:05.434Z,77024
2018-04-09T09:40:15.164Z,79840
2018-04-09T09:41:25.178Z,80000
2018-04-09T09:42:34.646Z,13808
2018-04-09T09:43:44.653Z,74144
2018-04-09T09:44:54.129Z,12596
2018-04-09T09:46:04.130Z,14268
2018-04-09T09:47:14.130Z,9696
2018-04-09T09:48:23.357Z,83808
2018-04-09T09:49:33.507Z,85376
2018-04-09T09:50:43.502Z,86816
2018-04-09T09:51:53.196Z,84320
2018-04-09T09:53:03.200Z,84256
2018-04-09T09:54:12.919Z,88224
2018-04-09T09:55:22.377Z,90144
2018-04-09T09:56:32.406Z,85568
2018-04-09T09:57:42.402Z,83680
2018-04-09T09:58:51.868Z,87872
2018-04-09T10:00:01.874Z,87744
2018-04-09T10:01:11.351Z,85632
2018-04-09T10:02:21.121Z,87872
2018-04-09T10:03:30.595Z,90016
2018-04-09T10:04:40.603Z,90080
2018-04-09T10:05:50.349Z,87456
2018-04-09T10:07:00.087Z,86592
2018-04-09T10:08:10.073Z,87584
2018-04-09T10:09:20.090Z,86944
2018-04-09T10:10:30.106Z,95008
2018-04-09T10:11:40.091Z,92384
2018-04-09T10:12:50.090Z,88800
2018-04-09T10:13:59.825Z,86400
2018-04-09T10:15:09.829Z,94144
2018-04-09T10:16:19.544Z,101408
2018-04-09T10:17:29.547Z,93184
2018-04-09T10:18:39.341Z,91168
2018-04-09T10:19:49.349Z,90528
2018-04-09T10:20:58.879Z,98048
2018-04-09T10:22:08.891Z,96672
2018-04-09T10:23:18.375Z,97728
2018-04-09T10:24:28.410Z,97952
2018-04-09T10:25:38.403Z,93280
2018-04-09T10:26:47.869Z,93600
2018-04-09T10:27:57.856Z,95904
2018-04-09T10:29:07.340Z,97504
2018-04-09T10:30:17.064Z,99456
2018-04-09T10:31:26.358Z,94496
2018-04-09T10:32:36.091Z,100000
2018-04-09T10:33:45.828Z,98688
2018-04-09T10:34:55.569Z,98304
2018-04-09T10:36:05.033Z,100288
2018-04-09T10:37:14.775Z,102688
2018-04-09T10:38:24.534Z,99200
2018-04-09T10:39:34.282Z,101056
2018-04-09T10:40:44.327Z,95840
2018-04-09T10:41:54.077Z,102080
2018-04-09T10:43:04.067Z,102272
2018-04-09T10:44:14.077Z,98720
2018-04-09T10:45:24.084Z,100224
2018-04-09T10:46:33.871Z,100992
2018-04-09T10:47:43.618Z,99264
2018-04-09T10:48:53.149Z,100384
2018-04-09T10:50:03.146Z,104704
2018-04-09T10:51:12.867Z,101056
2018-04-09T10:52:22.846Z,105344
2018-04-09T10:53:32.785Z,103712
2018-04-09T10:54:42.793Z,102528
2018-04-09T10:55:52.525Z,100608
2018-04-09T10:57:02.530Z,101184
2018-04-09T10:58:12.529Z,105472
2018-04-09T10:59:22.002Z,102624
2018-04-09T11:00:31.218Z,105760
2018-04-09T11:01:41.281Z,105472
2018-04-09T11:02:51.314Z,108448
2018-04-09T11:04:01.715Z,108992
2018-04-09T11:05:11.617Z,108480
2018-04-09T11:06:21.088Z,106176
2018-04-09T11:07:30.555Z,104160
2018-04-09T11:08:40.576Z,115616
2018-04-09T11:09:50.547Z,120896
2018-04-09T11:11:00.547Z,110400
2018-04-09T11:12:09.781Z,109024
2018-04-09T11:13:19.773Z,112000
2018-04-09T11:14:29.780Z,108672
2018-04-09T11:15:39.766Z,110272
2018-04-09T11:16:49.754Z,111520
2018-04-09T11:17:59.509Z,108544
2018-04-09T11:19:09.293Z,111680
2018-04-09T11:20:19.021Z,109984
2018-04-09T11:21:29.039Z,120256
2018-04-09T11:22:38.516Z,112672
2018-04-09T11:23:48.260Z,109536
2018-04-09T11:24:57.732Z,112448
2018-04-09T11:26:07.466Z,100384
2018-04-09T11:27:17.513Z,106016
2018-04-09T11:28:27.511Z,111392
2018-04-09T11:29:37.277Z,108512
2018-04-09T11:30:46.978Z,113280
2018-04-09T11:31:56.719Z,116352
2018-04-09T11:33:06.443Z,111904
2018-04-09T11:34:16.455Z,104000
2018-04-09T11:35:25.938Z,106144
2018-04-09T11:36:36.059Z,113568
2018-04-09T11:37:46.076Z,110208
2018-04-09T11:38:56.093Z,112416
2018-04-09T11:40:06.079Z,113696
2018-04-09T11:41:16.059Z,109024
2018-04-09T11:42:26.102Z,113088
2018-04-09T11:43:36.446Z,117216
2018-04-09T11:44:46.452Z,114880
2018-04-09T11:45:56.483Z,109984
2018-04-09T11:47:06.572Z,111904
2018-04-09T11:48:16.585Z,117440
2018-04-09T11:49:26.322Z,114880
2018-04-09T11:50:35.562Z,116448
2018-04-09T11:51:45.308Z,117600
2018-04-09T11:52:54.775Z,114336
2018-04-09T11:54:04.510Z,122336
2018-04-09T11:55:14.508Z,123424
2018-04-09T11:56:24.236Z,118976
2018-04-09T11:57:33.983Z,115840
2018-04-09T11:58:44.014Z,116480
2018-04-09T11:59:54.046Z,115264
2018-04-09T12:01:03.797Z,106944
2018-04-09T12:02:13.978Z,120032
2018-04-09T12:03:24.046Z,116960
2018-04-09T12:04:33.795Z,117888
2018-04-09T12:05:43.556Z,119424
2018-04-09T12:06:53.027Z,114304
2018-04-09T12:08:02.782Z,111456
2018-04-09T12:09:12.513Z,115488
2018-04-09T12:10:22.596Z,123200
2018-04-09T12:11:31.633Z,111776
2018-04-09T12:12:41.429Z,111904
2018-04-09T12:13:51.222Z,109408
2018-04-09T12:15:00.946Z,108448
2018-04-09T12:16:10.736Z,111936
2018-04-09T12:17:20.471Z,111712
2018-04-09T12:18:29.952Z,120288
2018-04-09T12:19:39.718Z,115200
2018-04-09T12:20:49.429Z,115584
2018-04-09T12:21:59.453Z,106816
2018-04-09T12:23:09.169Z,113280
2018-04-09T12:24:18.660Z,117024
2018-04-09T12:25:28.146Z,110560
2018-04-09T12:26:37.647Z,107936
2018-04-09T12:27:46.894Z,111712
2018-04-09T12:28:56.950Z,115808
2018-04-09T12:30:06.981Z,119360
2018-04-09T12:31:16.879Z,117408
2018-04-09T12:32:26.659Z,116512
2018-04-09T12:33:36.159Z,123936
2018-04-09T12:34:45.968Z,122368
2018-04-09T12:35:55.771Z,119360
2018-04-09T12:37:04.746Z,121184
2018-04-09T12:38:13.843Z,122176
2018-04-09T12:39:23.737Z,124160
2018-04-09T12:40:32.956Z,125632
2018-04-09T12:41:42.695Z,122720
2018-04-09T12:42:52.432Z,118720
2018-04-09T12:44:02.161Z,114624
2018-04-09T12:45:11.917Z,122112
2018-04-09T12:46:21.902Z,128096
2018-04-09T12:47:31.647Z,116768
2018-04-09T12:48:41.665Z,123424
2018-04-09T12:49:51.640Z,129888
2018-04-09T12:51:01.397Z,118880
2018-04-09T12:52:10.865Z,116576
2018-04-09T12:53:20.862Z,119392
2018-04-09T12:54:30.909Z,121472
2018-04-09T12:55:40.896Z,119584
2018-04-09T12:56:50.880Z,115616
2018-04-09T12:58:00.852Z,120352
2018-04-09T12:59:11.128Z,122112
2018-04-09T13:00:21.144Z,118912
2018-04-09T13:01:31.174Z,121824
2018-04-09T13:02:41.310Z,122016
2018-04-09T13:03:51.318Z,121088
2018-04-09T13:05:01.351Z,124544
2018-04-09T13:06:11.342Z,122240
2018-04-09T13:07:21.071Z,121312
2018-04-09T13:08:31.051Z,120448
2018-04-09T13:09:41.043Z,113824
2018-04-09T13:10:50.780Z,119904
2018-04-09T13:12:00.777Z,120288
2018-04-09T13:13:10.784Z,114176
2018-04-09T13:14:20.506Z,118816
2018-04-09T13:15:30.528Z,116640
2018-04-09T13:16:40.640Z,119968
2018-04-09T13:17:50.631Z,124544
2018-04-09T13:19:00.628Z,120640
2018-04-09T13:20:10.616Z,123136
2018-04-09T13:21:20.360Z,123360
2018-04-09T13:22:30.089Z,119904
2018-04-09T13:23:40.076Z,111424
2018-04-09T13:24:50.114Z,110048
2018-04-09T13:25:59.595Z,113824
2018-04-09T13:27:09.325Z,116320
2018-04-09T13:28:19.349Z,118720
2018-04-09T13:29:29.359Z,114816
2018-04-09T13:30:39.148Z,122592
2018-04-09T13:31:48.886Z,122528
2018-04-09T13:32:58.862Z,118272
2018-04-09T13:34:08.861Z,118240
2018-04-09T13:35:18.602Z,116832
2018-04-09T13:36:28.584Z,105728
2018-04-09T13:37:38.556Z,102400
2018-04-09T13:38:48.270Z,107392
2018-04-09T13:39:58.251Z,113024
2018-04-09T13:41:08.302Z,119648
2018-04-09T13:42:18.159Z,125280
2018-04-09T13:43:27.892Z,119936
2018-04-09T13:44:37.620Z,112992
2018-04-09T13:45:47.601Z,113280
2018-04-09T13:46:57.338Z,112704
2018-04-09T13:48:07.347Z,107168
2018-04-09T13:49:17.338Z,101248
2018-04-09T13:50:27.335Z,98080
2018-04-09T13:51:37.349Z,93952
2018-04-09T13:52:46.837Z,82624
2018-04-09T13:53:56.817Z,77184
2018-04-09T13:55:06.816Z,95840
2018-04-09T13:56:16.295Z,102144
2018-04-09T13:57:26.285Z,93216
2018-04-09T13:58:36.010Z,86336
2018-04-09T13:59:46.009Z,99776
2018-04-09T14:00:56.013Z,114272
2018-04-09T14:02:06.003Z,109248
2018-04-09T14:03:15.995Z,107008
2018-04-09T14:04:25.745Z,111008
2018-04-09T14:05:34.984Z,114656
2018-04-09T14:06:44.726Z,106528
2018-04-09T14:07:54.708Z,106304
2018-04-09T14:09:04.710Z,101728
2018-04-09T14:10:14.466Z,100352
2018-04-09T14:11:24.186Z,99712
2018-04-09T14:12:33.904Z,86304
2018-04-09T14:13:43.650Z,77216
2018-04-09T14:14:53.384Z,77376
2018-04-09T14:16:03.397Z,78208
2018-04-09T14:17:13.173Z,69728
2018-04-09T14:18:23.178Z,69440
2018-04-09T14:19:33.172Z,74080
2018-04-09T14:20:43.182Z,75200
2018-04-09T14:21:53.161Z,68000
2018-04-09T14:23:02.897Z,63488
2018-04-09T14:24:12.884Z,52864
2018-04-09T14:25:22.874Z,58848
2018-04-09T14:26:32.857Z,54944
2018-04-09T14:27:42.836Z,50944
2018-04-09T14:28:52.828Z,53888
2018-04-09T14:30:02.812Z,53856
2018-04-09T14:31:12.802Z,48640
2018-04-09T14:32:22.524Z,50976
2018-04-09T14:33:32.508Z,49344
2018-04-09T14:34:42.507Z,47712
2018-04-09T14:35:52.515Z,43648
2018-04-09T14:37:02.244Z,40480
2018-04-09T14:38:11.972Z,38784
2018-04-09T14:39:21.958Z,40128
2018-04-09T14:40:31.676Z,45280
2018-04-09T14:41:41.417Z,53088
2018-04-09T14:42:51.407Z,58432
2018-04-09T14:44:01.380Z,61664
2018-04-09T14:45:11.360Z,62016
2018-04-09T14:46:21.348Z,56256
2018-04-09T14:47:31.325Z,51680
2018-04-09T14:48:41.292Z,56512
2018-04-09T14:49:51.265Z,55232
2018-04-09T14:51:00.990Z,64928
2018-04-09T14:52:11.312Z,64320
2018-04-09T14:53:21.032Z,48288
2018-04-09T14:54:30.752Z,39808
2018-04-09T14:55:40.464Z,38688
2018-04-09T14:56:50.429Z,45888
2018-04-09T14:58:00.511Z,51360
2018-04-09T14:59:10.551Z,58592
2018-04-09T15:00:20.532Z,52000
2018-04-09T15:01:30.261Z,55456
2018-04-09T15:02:39.991Z,69984
2018-04-09T15:03:49.992Z,73056
2018-04-09T15:04:59.962Z,48832
2018-04-09T15:06:09.681Z,48064
2018-04-09T15:07:19.402Z,59168
2018-04-09T15:08:29.374Z,44064
2018-04-09T15:09:39.368Z,41888
2018-04-09T15:10:49.356Z,40224
2018-04-09T15:11:59.337Z,39296
2018-04-09T15:13:09.322Z,43936
2018-04-09T15:14:19.314Z,45408
2018-04-09T15:15:29.294Z,51072
2018-04-09T15:16:39.009Z,60320
2018-04-09T15:17:49.011Z,58304
2018-04-09T15:18:58.725Z,60064
2018-04-09T15:20:08.457Z,57856
2018-04-09T15:21:18.447Z,62624
2018-04-09T15:22:28.442Z,53568
2018-04-09T15:23:38.440Z,48704
2018-04-09T15:24:48.533Z,44224
2018-04-09T15:25:58.559Z,39616
2018-04-09T15:27:08.396Z,41632
2018-04-09T15:28:18.523Z,40704
2018-04-09T15:29:28.576Z,44192
2018-04-09T15:30:38.613Z,45792